createdAt,value
2018-12-09T00:00:51.716Z,4.50
2018-12-09T00:01:51.824Z,3.10
2018-12-09T00:02:51.894Z,5.00
2018-12-09T00:03:51.930Z,5.30
2018-12-09T00:04:52.026Z,5.60
2018-12-09T00:05:51.981Z,9.90
2018-12-09T00:06:52.035Z,4.70
2018-12-09T00:07:52.125Z,9.30
2018-12-09T00:08:52.186Z,5.90
2018-12-09T00:09:52.208Z,6.20
2018-12-09T00:10:52.262Z,3.80
2018-12-09T00:11:52.427Z,10.30
2018-12-09T00:12:52.404Z,11.50
2018-12-09T00:13:52.498Z,7.70
2018-12-09T00:14:52.525Z,6.10
2018-12-09T00:15:52.559Z,5.00
2018-12-09T00:16:52.665Z,8.20
2018-12-09T00:17:52.719Z,6.20
2018-12-09T00:18:52.767Z,4.50
2018-12-09T00:19:52.788Z,7.60
2018-12-09T00:20:52.856Z,9.50
2018-12-09T00:21:53.014Z,6.40
2018-12-09T00:22:52.964Z,7.40
2018-12-09T00:23:53.040Z,5.40
2018-12-09T00:24:53.128Z,8.10
2018-12-09T00:25:53.139Z,8.20
2018-12-09T00:26:53.308Z,7.60
2018-12-09T00:27:53.284Z,6.70
2018-12-09T00:28:53.307Z,5.10
2018-12-09T00:29:53.376Z,12.50
2018-12-09T00:30:53.458Z,5.60
2018-12-09T00:31:53.588Z,7.10
2018-12-09T00:32:53.566Z,7.30
2018-12-09T00:33:53.575Z,6.00
2018-12-09T00:34:53.691Z,7.10
2018-12-09T00:35:53.678Z,10.00
2018-12-09T00:36:53.804Z,10.40
2018-12-09T00:37:53.873Z,6.70
2018-12-09T00:38:53.847Z,10.00
2018-12-09T00:39:53.973Z,6.30
2018-12-09T00:40:53.991Z,8.10
2018-12-09T00:41:54.125Z,9.60
2018-12-09T00:42:54.103Z,3.70
2018-12-09T00:43:54.151Z,5.40
2018-12-09T00:44:54.259Z,3.20
2018-12-09T00:45:54.328Z,5.40
2018-12-09T00:46:54.303Z,9.20
2018-12-09T00:47:54.440Z,5.50
2018-12-09T00:48:54.481Z,9.00
2018-12-09T00:49:54.549Z,6.10
2018-12-09T00:50:54.584Z,8.30
2018-12-09T00:51:54.641Z,9.30
2018-12-09T00:52:54.707Z,3.80
2018-12-09T00:53:54.718Z,8.20
2018-12-09T00:54:54.786Z,4.00
2018-12-09T00:55:54.868Z,4.90
2018-12-09T00:56:54.974Z,5.40
2018-12-09T00:57:55.011Z,5.80
2018-12-09T00:58:54.986Z,4.30
2018-12-09T00:59:55.043Z,3.60
2018-12-09T01:00:55.111Z,4.10
2018-12-09T01:01:55.288Z,4.50
2018-12-09T01:02:55.298Z,8.70
2018-12-09T01:03:55.277Z,4.90
2018-12-09T01:04:55.412Z,7.30
2018-12-09T01:05:55.447Z,3.90
2018-12-09T01:06:55.564Z,9.20
2018-12-09T01:07:55.565Z,3.80
2018-12-09T01:08:55.552Z,5.00
2018-12-09T01:09:55.629Z,3.00
2018-12-09T01:10:55.722Z,3.30
2018-12-09T01:11:55.826Z,2.70
2018-12-09T01:12:55.816Z,4.00
2018-12-09T01:13:55.922Z,5.80
2018-12-09T01:14:55.941Z,4.80
2018-12-09T01:15:55.996Z,3.90
2018-12-09T01:16:56.137Z,3.10
2018-12-09T01:17:56.141Z,2.70
2018-12-09T01:18:56.119Z,2.70
2018-12-09T01:19:56.180Z,5.40
2018-12-09T01:20:56.308Z,2.50
2018-12-09T01:21:56.367Z,4.10
2018-12-09T01:22:56.400Z,2.10
2018-12-09T01:23:56.402Z,4.10
2018-12-09T01:24:56.460Z,3.30
2018-12-09T01:25:56.516Z,4.50
2018-12-09T01:26:56.572Z,1.90
2018-12-09T01:27:56.629Z,1.70
2018-12-09T01:28:56.703Z,3.80
2018-12-09T01:29:56.791Z,4.00
2018-12-09T01:30:56.843Z,1.90
2018-12-09T01:31:56.895Z,3.40
2018-12-09T01:32:57.014Z,4.00
2018-12-09T01:33:57.065Z,3.40
2018-12-09T01:34:57.092Z,3.20
2018-12-09T01:35:57.081Z,1.60
2018-12-09T01:36:57.139Z,1.60
2018-12-09T01:37:57.196Z,1.50
2018-12-09T01:38:57.250Z,2.20
2018-12-09T01:39:57.349Z,4.60
2018-12-09T01:40:57.365Z,3.50
2018-12-09T01:41:57.422Z,3.20
2018-12-09T01:42:57.476Z,3.30
2018-12-09T01:43:57.534Z,3.00
2018-12-09T01:44:57.590Z,1.60
2018-12-09T01:45:57.647Z,3.50
2018-12-09T01:46:57.703Z,0.90
2018-12-09T01:47:57.761Z,3.80
2018-12-09T01:48:57.820Z,2.70
2018-12-09T01:49:57.873Z,2.40
2018-12-09T01:50:57.929Z,4.10
2018-12-09T01:51:57.985Z,2.60
2018-12-09T01:52:58.041Z,1.90
2018-12-09T01:53:58.098Z,1.70
2018-12-09T01:54:58.168Z,2.20
2018-12-09T01:55:58.210Z,3.80
2018-12-09T01:56:58.266Z,1.10
2018-12-09T01:57:58.364Z,4.20
2018-12-09T01:58:58.379Z,3.40
2018-12-09T01:59:58.433Z,3.60
2018-12-09T02:00:58.490Z,3.50
2018-12-09T02:01:58.546Z,1.30
2018-12-09T02:02:58.601Z,1.40
2018-12-09T02:03:58.657Z,2.90
2018-12-09T02:04:58.713Z,1.60
2018-12-09T02:05:58.771Z,1.70
2018-12-09T02:06:58.825Z,0.90
2018-12-09T02:07:58.879Z,2.80
2018-12-09T02:08:58.936Z,2.60
2018-12-09T02:09:58.991Z,3.10
2018-12-09T02:10:59.050Z,2.10
2018-12-09T02:11:59.101Z,2.00
2018-12-09T02:12:59.158Z,3.80
2018-12-09T02:13:59.218Z,3.60
2018-12-09T02:14:59.271Z,2.80
2018-12-09T02:15:59.325Z,2.90
2018-12-09T02:16:59.381Z,2.80
2018-12-09T02:17:59.438Z,7.10
2018-12-09T02:18:59.491Z,1.60
2018-12-09T02:19:59.564Z,3.80
2018-12-09T02:20:59.603Z,3.30
2018-12-09T02:21:59.660Z,3.40
2018-12-09T02:22:59.716Z,4.90
2018-12-09T02:23:59.770Z,4.90
2018-12-09T02:24:59.835Z,4.30
2018-12-09T02:25:59.882Z,4.70
2018-12-09T02:26:59.940Z,4.30
2018-12-09T02:27:59.995Z,2.60
2018-12-09T02:29:00.052Z,3.60
2018-12-09T02:30:00.110Z,2.50
2018-12-09T02:31:00.161Z,3.70
2018-12-09T02:32:00.219Z,1.70
2018-12-09T02:33:00.273Z,3.60
2018-12-09T02:34:00.330Z,5.60
2018-12-09T02:35:00.385Z,3.90
2018-12-09T02:36:00.441Z,4.70
2018-12-09T02:37:00.496Z,3.50
2018-12-09T02:38:00.554Z,4.10
2018-12-09T02:39:00.608Z,2.30
2018-12-09T02:40:00.664Z,7.30
2018-12-09T02:41:00.721Z,5.70
2018-12-09T02:42:00.776Z,2.10
2018-12-09T02:43:00.831Z,2.00
2018-12-09T02:44:00.889Z,3.40
2018-12-09T02:45:00.950Z,6.00
2018-12-09T02:46:00.999Z,3.80
2018-12-09T02:47:01.057Z,6.20
2018-12-09T02:48:01.111Z,7.10
2018-12-09T02:49:01.167Z,5.10
2018-12-09T02:50:01.224Z,4.10
2018-12-09T02:51:01.279Z,4.00
2018-12-09T02:52:01.335Z,3.90
2018-12-09T02:53:01.391Z,4.90
2018-12-09T02:54:01.447Z,3.70
2018-12-09T02:55:01.502Z,6.90
2018-12-09T02:56:01.558Z,4.40
2018-12-09T02:57:01.613Z,4.30
2018-12-09T02:58:01.671Z,5.00
2018-12-09T02:59:01.726Z,6.20
2018-12-09T03:00:01.833Z,4.10
2018-12-09T03:01:01.836Z,5.90
2018-12-09T03:02:01.893Z,3.00
2018-12-09T03:03:01.950Z,4.90
2018-12-09T03:04:02.004Z,3.40
2018-12-09T03:05:02.322Z,8.90
2018-12-09T03:06:02.116Z,3.80
2018-12-09T03:07:02.172Z,2.00
2018-12-09T03:08:02.228Z,6.30
2018-12-09T03:09:02.285Z,5.70
2018-12-09T03:10:02.349Z,5.30
2018-12-09T03:11:02.396Z,3.80
2018-12-09T03:12:02.459Z,1.60
2018-12-09T03:13:02.511Z,2.60
2018-12-09T03:14:02.572Z,3.20
2018-12-09T03:15:02.620Z,6.40
2018-12-09T03:16:02.675Z,6.10
2018-12-09T03:17:02.734Z,5.40
2018-12-09T03:18:02.788Z,4.20
2018-12-09T03:19:02.846Z,4.70
2018-12-09T03:20:02.899Z,1.60
2018-12-09T03:21:02.955Z,1.10
2018-12-09T03:22:03.014Z,3.20
2018-12-09T03:23:03.068Z,3.90
2018-12-09T03:24:03.124Z,4.10
2018-12-09T03:25:03.179Z,2.00
2018-12-09T03:26:03.237Z,0.80
2018-12-09T03:27:03.292Z,1.60
2018-12-09T03:28:03.347Z,2.60
2018-12-09T03:29:03.404Z,3.40
2018-12-09T03:30:03.460Z,3.60
2018-12-09T03:31:03.515Z,2.30
2018-12-09T03:32:03.573Z,6.20
2018-12-09T03:33:03.631Z,3.00
2018-12-09T03:34:03.684Z,3.90
2018-12-09T03:35:03.739Z,1.60
2018-12-09T03:36:03.799Z,0.80
2018-12-09T03:37:03.851Z,3.10
2018-12-09T03:38:03.909Z,0.50
2018-12-09T03:39:03.963Z,0.80
2018-12-09T03:40:04.019Z,0.80
2018-12-09T03:41:04.075Z,3.80
2018-12-09T03:42:04.133Z,1.00
2018-12-09T03:43:04.198Z,4.70
2018-12-09T03:44:04.259Z,1.30
2018-12-09T03:45:04.299Z,1.50
2018-12-09T03:46:04.357Z,2.30
2018-12-09T03:47:04.410Z,1.50
2018-12-09T03:48:04.467Z,1.80
2018-12-09T03:49:04.524Z,2.90
2018-12-09T03:50:04.580Z,1.00
2018-12-09T03:51:04.634Z,1.20
2018-12-09T03:52:04.696Z,0.90
2018-12-09T03:53:04.749Z,0.90
2018-12-09T03:54:04.804Z,1.80
2018-12-09T03:55:04.881Z,0.70
2018-12-09T03:56:04.931Z,1.30
2018-12-09T03:57:04.971Z,1.00
2018-12-09T03:58:05.031Z,2.70
2018-12-09T03:59:05.082Z,0.50
2018-12-09T04:00:05.180Z,0.20
2018-12-09T04:01:05.195Z,1.40
2018-12-09T04:02:05.250Z,1.90
2018-12-09T04:03:05.307Z,0.20
2018-12-09T04:04:05.363Z,0.50
2018-12-09T04:05:05.420Z,0.30
2018-12-09T04:06:05.475Z,0.20
2018-12-09T04:07:05.530Z,2.50
2018-12-09T04:08:05.585Z,0.30
2018-12-09T04:09:05.641Z,0.60
2018-12-09T04:10:05.698Z,1.80
2018-12-09T04:11:05.752Z,0.40
2018-12-09T04:12:05.821Z,3.90
2018-12-09T04:13:05.864Z,0.70
2018-12-09T04:14:05.920Z,0.50
2018-12-09T04:15:05.974Z,0.60
2018-12-09T04:16:06.031Z,1.30
2018-12-09T04:17:06.088Z,1.00
2018-12-09T04:18:06.144Z,1.00
2018-12-09T04:19:06.199Z,0.60
2018-12-09T04:20:06.255Z,0.80
2018-12-09T04:21:06.312Z,0.20
2018-12-09T04:22:06.369Z,1.00
2018-12-09T04:23:06.422Z,0.60
2018-12-09T04:24:06.480Z,0.70
2018-12-09T04:25:06.534Z,1.70
2018-12-09T04:26:06.590Z,0.70
2018-12-09T04:27:06.646Z,1.00
2018-12-09T04:28:06.702Z,3.30
2018-12-09T04:29:06.757Z,0.40
2018-12-09T04:30:06.898Z,1.20
2018-12-09T04:31:06.870Z,0.90
2018-12-09T04:32:06.926Z,2.60
2018-12-09T04:33:06.980Z,2.00
2018-12-09T04:34:07.039Z,1.00
2018-12-09T04:35:07.091Z,0.90
2018-12-09T04:36:07.150Z,1.80
2018-12-09T04:37:07.204Z,2.10
2018-12-09T04:38:07.259Z,1.60
2018-12-09T04:39:07.313Z,2.60
2018-12-09T04:40:08.746Z,2.10
2018-12-09T04:41:07.426Z,3.50
2018-12-09T04:42:07.487Z,1.30
2018-12-09T04:43:07.541Z,2.10
2018-12-09T04:44:07.594Z,1.10
2018-12-09T04:45:07.652Z,2.90
2018-12-09T04:46:07.713Z,1.80
2018-12-09T04:47:07.760Z,2.20
2018-12-09T04:48:07.842Z,2.10
2018-12-09T04:49:07.872Z,1.10
2018-12-09T04:50:07.930Z,3.60
2018-12-09T04:51:07.984Z,1.70
2018-12-09T04:52:08.049Z,1.50
2018-12-09T04:53:08.096Z,3.00
2018-12-09T04:54:08.152Z,3.90
2018-12-09T04:55:08.207Z,2.60
2018-12-09T04:56:08.286Z,3.60
2018-12-09T04:57:08.318Z,1.00
2018-12-09T04:58:08.375Z,2.10
2018-12-09T04:59:08.429Z,0.90
2018-12-09T05:00:08.486Z,0.30
2018-12-09T05:01:08.902Z,2.20
2018-12-09T05:02:08.596Z,1.10
2018-12-09T05:03:08.654Z,0.90
2018-12-09T05:04:08.708Z,1.50
2018-12-09T05:05:08.764Z,2.50
2018-12-09T05:06:08.820Z,3.40
2018-12-09T05:07:08.875Z,4.40
2018-12-09T05:08:08.934Z,2.50
2018-12-09T05:09:08.988Z,2.20
2018-12-09T05:10:09.043Z,2.30
2018-12-09T05:11:09.099Z,3.80
2018-12-09T05:12:09.156Z,3.00
2018-12-09T05:13:09.211Z,5.20
2018-12-09T05:14:09.268Z,2.10
2018-12-09T05:15:09.323Z,4.10
2018-12-09T05:16:09.379Z,3.10
2018-12-09T05:17:09.433Z,3.30
2018-12-09T05:18:09.493Z,2.70
2018-12-09T05:19:09.545Z,2.30
2018-12-09T05:20:09.603Z,3.80
2018-12-09T05:21:09.660Z,2.30
2018-12-09T05:22:09.717Z,3.40
2018-12-09T05:23:09.767Z,4.80
2018-12-09T05:24:09.826Z,2.30
2018-12-09T05:25:09.880Z,6.60
2018-12-09T05:26:09.936Z,5.70
2018-12-09T05:27:09.991Z,1.80
2018-12-09T05:28:10.048Z,3.50
2018-12-09T05:29:10.104Z,4.60
2018-12-09T05:30:10.160Z,5.30
2018-12-09T05:31:10.215Z,7.60
2018-12-09T05:32:10.270Z,3.20
2018-12-09T05:33:10.327Z,4.70
2018-12-09T05:34:10.383Z,5.00
2018-12-09T05:35:10.441Z,4.30
2018-12-09T05:36:10.493Z,5.30
2018-12-09T05:37:10.562Z,8.80
2018-12-09T05:38:10.606Z,5.90
2018-12-09T05:39:10.661Z,5.10
2018-12-09T05:40:11.978Z,7.80
2018-12-09T05:41:10.779Z,6.20
2018-12-09T05:42:10.828Z,3.00
2018-12-09T05:43:10.886Z,8.70
2018-12-09T05:44:10.940Z,4.00
2018-12-09T05:45:10.996Z,10.10
2018-12-09T05:46:11.053Z,5.90
2018-12-09T05:47:11.108Z,4.00
2018-12-09T05:48:11.170Z,3.10
2018-12-09T05:49:11.220Z,4.80
2018-12-09T05:50:11.278Z,4.80
2018-12-09T05:51:11.334Z,4.10
2018-12-09T05:52:11.388Z,5.00
2018-12-09T05:53:11.464Z,7.00
2018-12-09T05:54:11.502Z,5.80
2018-12-09T05:55:11.557Z,3.30
2018-12-09T05:56:11.613Z,6.70
2018-12-09T05:57:11.669Z,8.80
2018-12-09T05:58:11.736Z,11.50
2018-12-09T05:59:11.780Z,5.40
2018-12-09T06:00:11.836Z,7.70
2018-12-09T06:01:11.893Z,6.10
2018-12-09T06:02:11.948Z,6.50
2018-12-09T06:03:12.003Z,5.80
2018-12-09T06:04:12.060Z,6.30
2018-12-09T06:05:12.118Z,2.90
2018-12-09T06:06:12.174Z,9.60
2018-12-09T06:07:12.229Z,4.80
2018-12-09T06:08:12.285Z,5.10
2018-12-09T06:09:12.342Z,4.70
2018-12-09T06:10:12.399Z,3.20
2018-12-09T06:11:12.453Z,8.00
2018-12-09T06:12:12.510Z,4.10
2018-12-09T06:13:12.566Z,6.40
2018-12-09T06:14:12.625Z,8.20
2018-12-09T06:15:12.678Z,4.90
2018-12-09T06:16:12.733Z,12.40
2018-12-09T06:17:12.790Z,8.50
2018-12-09T06:18:12.847Z,8.80
2018-12-09T06:19:12.903Z,6.90
2018-12-09T06:20:12.959Z,8.50
2018-12-09T06:21:13.015Z,7.70
2018-12-09T06:22:13.072Z,5.20
2018-12-09T06:23:13.128Z,2.90
2018-12-09T06:24:13.183Z,2.90
2018-12-09T06:25:13.245Z,7.10
2018-12-09T06:26:13.296Z,7.20
2018-12-09T06:27:14.052Z,4.30
2018-12-09T06:28:13.410Z,5.10
2018-12-09T06:29:13.465Z,5.80
2018-12-09T06:30:13.522Z,5.90
2018-12-09T06:31:13.582Z,5.00
2018-12-09T06:32:13.635Z,6.30
2018-12-09T06:33:13.691Z,7.00
2018-12-09T06:34:13.749Z,5.70
2018-12-09T06:35:13.803Z,3.40
2018-12-09T06:36:13.861Z,7.40
2018-12-09T06:37:13.916Z,5.20
2018-12-09T06:38:13.973Z,6.20
2018-12-09T06:39:14.029Z,4.90
2018-12-09T06:40:14.085Z,6.20
2018-12-09T06:41:14.142Z,3.40
2018-12-09T06:42:14.199Z,6.00
2018-12-09T06:43:14.259Z,4.20
2018-12-09T06:44:14.315Z,3.50
2018-12-09T06:45:14.368Z,6.50
2018-12-09T06:46:14.424Z,3.30
2018-12-09T06:47:14.480Z,3.20
2018-12-09T06:48:14.537Z,8.20
2018-12-09T06:49:14.593Z,6.20
2018-12-09T06:50:14.649Z,5.50
2018-12-09T06:51:14.706Z,3.40
2018-12-09T06:52:14.763Z,8.90
2018-12-09T06:53:14.819Z,8.00
2018-12-09T06:54:14.876Z,5.70
2018-12-09T06:55:14.932Z,7.70
2018-12-09T06:56:14.988Z,5.80
2018-12-09T06:57:15.047Z,6.90
2018-12-09T06:58:15.101Z,5.00
2018-12-09T06:59:15.157Z,5.00
2018-12-09T07:00:15.215Z,5.10
2018-12-09T07:01:15.270Z,4.90
2018-12-09T07:02:15.326Z,7.10
2018-12-09T07:03:15.382Z,7.40
2018-12-09T07:04:15.440Z,6.00
2018-12-09T07:05:15.496Z,3.60
2018-12-09T07:06:15.553Z,10.10
2018-12-09T07:07:15.609Z,4.50
2018-12-09T07:08:15.665Z,5.50
2018-12-09T07:09:15.722Z,9.50
2018-12-09T07:10:15.780Z,4.90
2018-12-09T07:11:15.833Z,8.30
2018-12-09T07:12:15.890Z,7.60
2018-12-09T07:13:15.947Z,7.10
2018-12-09T07:14:16.003Z,7.40
2018-12-09T07:15:16.059Z,4.40
2018-12-09T07:16:16.115Z,8.20
2018-12-09T07:17:16.175Z,7.50
2018-12-09T07:18:16.229Z,3.50
2018-12-09T07:19:16.285Z,6.80
2018-12-09T07:20:16.341Z,5.10
2018-12-09T07:21:16.402Z,7.60
2018-12-09T07:22:16.456Z,4.80
2018-12-09T07:23:17.174Z,4.90
2018-12-09T07:24:16.568Z,7.30
2018-12-09T07:25:16.624Z,6.00
2018-12-09T07:26:16.682Z,6.20
2018-12-09T07:27:16.737Z,7.50
2018-12-09T07:28:16.793Z,6.50
2018-12-09T07:29:16.852Z,7.40
2018-12-09T07:30:16.920Z,4.50
2018-12-09T07:31:16.963Z,9.30
2018-12-09T07:32:17.020Z,3.60
2018-12-09T07:33:17.078Z,4.90
2018-12-09T07:34:17.714Z,4.40
2018-12-09T07:35:17.187Z,8.00
2018-12-09T07:36:17.245Z,6.90
2018-12-09T07:37:17.301Z,5.20
2018-12-09T07:38:17.358Z,5.50
2018-12-09T07:39:17.414Z,5.40
2018-12-09T07:40:17.470Z,3.40
2018-12-09T07:41:17.527Z,7.10
2018-12-09T07:42:17.584Z,4.60
2018-12-09T07:43:17.765Z,10.50
2018-12-09T07:44:17.696Z,5.20
2018-12-09T07:45:17.803Z,7.70
2018-12-09T07:46:17.809Z,7.10
2018-12-09T07:47:17.866Z,4.90
2018-12-09T07:48:17.924Z,6.80
2018-12-09T07:49:17.997Z,5.80
2018-12-09T07:50:18.035Z,2.80
2018-12-09T07:51:18.091Z,7.00
2018-12-09T07:52:18.148Z,5.50
2018-12-09T07:53:18.205Z,6.50
2018-12-09T07:54:18.260Z,5.40
2018-12-09T07:55:18.316Z,9.00
2018-12-09T07:56:18.373Z,4.80
2018-12-09T07:57:18.431Z,11.50
2018-12-09T07:58:18.488Z,6.20
2018-12-09T07:59:18.545Z,4.30
2018-12-09T08:00:18.600Z,8.10
2018-12-09T08:01:18.657Z,8.80
2018-12-09T08:02:18.713Z,10.20
2018-12-09T08:03:18.769Z,11.60
2018-12-09T08:04:18.826Z,6.20
2018-12-09T08:05:18.882Z,5.90
2018-12-09T08:06:18.940Z,5.80
2018-12-09T08:07:18.996Z,3.00
2018-12-09T08:08:19.050Z,7.00
2018-12-09T08:09:19.109Z,8.40
2018-12-09T08:10:19.165Z,3.70
2018-12-09T08:11:19.223Z,4.80
2018-12-09T08:12:19.278Z,6.70
2018-12-09T08:13:19.334Z,6.80
2018-12-09T08:14:19.392Z,5.20
2018-12-09T08:15:19.448Z,7.00
2018-12-09T08:16:19.504Z,4.50
2018-12-09T08:17:19.561Z,4.50
2018-12-09T08:18:19.617Z,7.20
2018-12-09T08:19:19.674Z,8.40
2018-12-09T08:20:19.730Z,6.10
2018-12-09T08:21:19.786Z,6.90
2018-12-09T08:22:19.844Z,5.10
2018-12-09T08:23:19.900Z,5.40
2018-12-09T08:24:19.956Z,5.20
2018-12-09T08:25:20.028Z,4.70
2018-12-09T08:26:20.069Z,2.20
2018-12-09T08:27:20.125Z,2.30
2018-12-09T08:28:20.182Z,4.60
2018-12-09T08:29:20.238Z,3.60
2018-12-09T08:30:20.298Z,2.80
2018-12-09T08:31:20.351Z,2.80
2018-12-09T08:32:20.407Z,5.00
2018-12-09T08:33:20.466Z,3.10
2018-12-09T08:34:20.521Z,2.80
2018-12-09T08:35:20.578Z,4.30
2018-12-09T08:36:20.633Z,2.80
2018-12-09T08:37:20.693Z,5.10
2018-12-09T08:38:20.748Z,2.80
2018-12-09T08:39:20.850Z,4.50
2018-12-09T08:40:20.862Z,2.90
2018-12-09T08:41:20.918Z,3.30
2018-12-09T08:42:20.972Z,2.30
2018-12-09T08:43:21.029Z,3.50
2018-12-09T08:44:21.087Z,2.60
2018-12-09T08:45:21.143Z,2.10
2018-12-09T08:46:21.736Z,3.80
2018-12-09T08:47:21.255Z,1.90
2018-12-09T08:48:21.412Z,4.40
2018-12-09T08:49:21.367Z,1.30
2018-12-09T08:50:21.425Z,3.80
2018-12-09T08:51:21.481Z,2.10
2018-12-09T08:52:21.537Z,4.50
2018-12-09T08:53:21.594Z,3.70
2018-12-09T08:54:21.650Z,4.10
2018-12-09T08:55:21.707Z,2.40
2018-12-09T08:56:22.543Z,2.70
2018-12-09T08:57:21.820Z,2.30
2018-12-09T08:58:21.876Z,2.80
2018-12-09T08:59:21.934Z,1.00
2018-12-09T09:00:21.989Z,3.60
2018-12-09T09:01:22.047Z,2.20
2018-12-09T09:02:22.103Z,2.30
2018-12-09T09:03:22.158Z,0.50
2018-12-09T09:04:22.215Z,2.60
2018-12-09T09:05:22.271Z,1.40
2018-12-09T09:06:22.327Z,3.10
2018-12-09T09:07:22.384Z,2.50
2018-12-09T09:08:22.443Z,2.40
2018-12-09T09:09:22.496Z,3.60
2018-12-09T09:10:22.554Z,1.70
2018-12-09T09:11:22.612Z,2.80
2018-12-09T09:12:22.666Z,2.40
2018-12-09T09:13:22.721Z,0.80
2018-12-09T09:14:22.781Z,1.90
2018-12-09T09:15:22.835Z,1.10
2018-12-09T09:16:22.911Z,1.20
2018-12-09T09:17:22.948Z,0.70
2018-12-09T09:18:23.004Z,0.80
2018-12-09T09:19:23.601Z,4.10
2018-12-09T09:20:23.621Z,2.50
2018-12-09T09:21:23.175Z,1.20
2018-12-09T09:22:23.231Z,1.60
2018-12-09T09:23:23.287Z,1.20
2018-12-09T09:24:23.342Z,0.50
2018-12-09T09:25:23.400Z,2.00
2018-12-09T09:26:23.456Z,0.80
2018-12-09T09:27:23.511Z,1.20
2018-12-09T09:28:23.569Z,1.50
2018-12-09T09:29:23.626Z,0.70
2018-12-09T09:30:23.687Z,1.10
2018-12-09T09:31:23.737Z,0.20
2018-12-09T09:32:23.793Z,0.50
2018-12-09T09:33:23.851Z,0.60
2018-12-09T09:34:23.909Z,0.40
2018-12-09T09:35:23.962Z,0.50
2018-12-09T09:36:24.021Z,0.50
2018-12-09T09:37:24.077Z,0.70
2018-12-09T09:38:24.133Z,0.40
2018-12-09T09:39:24.190Z,0.60
2018-12-09T09:40:24.246Z,1.10
2018-12-09T09:41:24.303Z,0.40
2018-12-09T09:42:24.360Z,0.70
2018-12-09T09:43:24.512Z,1.20
2018-12-09T09:44:24.471Z,1.50
2018-12-09T09:45:24.528Z,0.00
2018-12-09T09:46:24.584Z,1.40
2018-12-09T09:47:24.641Z,0.30
2018-12-09T09:48:24.698Z,0.40
2018-12-09T09:49:24.757Z,0.60
2018-12-09T09:50:24.819Z,0.70
2018-12-09T09:51:24.867Z,0.90
2018-12-09T09:52:24.923Z,1.20
2018-12-09T09:53:24.981Z,1.20
2018-12-09T09:54:25.037Z,1.00
2018-12-09T09:55:25.096Z,0.40
2018-12-09T09:56:25.149Z,1.50
2018-12-09T09:57:25.206Z,0.10
2018-12-09T09:58:25.263Z,0.10
2018-12-09T09:59:25.318Z,0.40
2018-12-09T10:00:25.376Z,0.60
2018-12-09T10:01:25.431Z,1.10
2018-12-09T10:02:25.489Z,1.10
2018-12-09T10:03:26.271Z,0.50
2018-12-09T10:04:25.602Z,1.00
2018-12-09T10:05:25.658Z,0.60
2018-12-09T10:06:25.716Z,1.10
2018-12-09T10:07:26.444Z,0.60
2018-12-09T10:08:25.828Z,1.10
2018-12-09T10:09:25.884Z,0.90
2018-12-09T10:10:25.944Z,0.70
2018-12-09T10:11:26.704Z,1.50
2018-12-09T10:12:26.054Z,1.80
2018-12-09T10:13:26.112Z,1.10
2018-12-09T10:14:26.181Z,7.60
2018-12-09T10:15:26.226Z,1.50
2018-12-09T10:16:26.281Z,2.90
2018-12-09T10:17:26.337Z,1.10
2018-12-09T10:18:26.395Z,2.30
2018-12-09T10:19:27.104Z,0.70
2018-12-09T10:20:27.176Z,1.50
2018-12-09T10:21:27.256Z,0.90
2018-12-09T10:22:32.064Z,1.10
2018-12-09T10:23:26.680Z,1.20
2018-12-09T10:24:26.734Z,1.10
2018-12-09T10:25:26.792Z,1.40
2018-12-09T10:26:26.849Z,2.10
2018-12-09T10:27:26.904Z,1.60
2018-12-09T10:28:26.961Z,1.20
2018-12-09T10:29:27.017Z,1.50
2018-12-09T10:30:27.076Z,0.40
2018-12-09T10:31:27.132Z,0.60
2018-12-09T10:32:27.212Z,2.00
2018-12-09T10:33:27.245Z,2.20
2018-12-09T10:34:27.303Z,1.20
2018-12-09T10:35:27.448Z,0.70
2018-12-09T10:36:27.416Z,2.40
2018-12-09T10:37:27.472Z,3.50
2018-12-09T10:38:27.529Z,1.70
2018-12-09T10:39:27.585Z,0.50
2018-12-09T10:40:27.643Z,2.10
2018-12-09T10:41:27.698Z,2.90
2018-12-09T10:42:27.756Z,0.60
2018-12-09T10:43:27.812Z,1.90
2018-12-09T10:44:27.869Z,1.20
2018-12-09T10:45:27.981Z,1.10
2018-12-09T10:46:27.984Z,1.80
2018-12-09T10:47:28.042Z,1.50
2018-12-09T10:48:28.096Z,1.20
2018-12-09T10:49:28.153Z,0.80
2018-12-09T10:50:28.210Z,1.40
2018-12-09T10:51:28.266Z,2.10
2018-12-09T10:52:28.324Z,1.50
2018-12-09T10:53:28.380Z,1.10
2018-12-09T10:54:28.438Z,0.40
2018-12-09T10:55:28.503Z,0.60
2018-12-09T10:56:28.554Z,0.90
2018-12-09T10:57:28.608Z,1.20
2018-12-09T10:58:28.664Z,3.60
2018-12-09T10:59:28.721Z,1.00
2018-12-09T11:00:29.087Z,1.50
2018-12-09T11:01:29.479Z,1.10
2018-12-09T11:02:28.892Z,0.50
2018-12-09T11:03:28.949Z,0.80
2018-12-09T11:04:29.005Z,1.20
2018-12-09T11:05:29.440Z,2.60
2018-12-09T11:06:29.124Z,0.90
2018-12-09T11:07:29.181Z,1.10
2018-12-09T11:08:29.233Z,0.90
2018-12-09T11:09:29.291Z,1.00
2018-12-09T11:10:29.349Z,0.80
2018-12-09T11:11:29.420Z,1.30
2018-12-09T11:12:29.461Z,1.00
2018-12-09T11:13:29.517Z,0.80
2018-12-09T11:14:29.576Z,1.40
2018-12-09T11:15:29.632Z,0.20
2018-12-09T11:16:29.689Z,0.60
2018-12-09T11:17:29.753Z,1.10
2018-12-09T11:18:29.838Z,0.90
2018-12-09T11:19:29.859Z,3.00
2018-12-09T11:20:29.917Z,1.30
2018-12-09T11:21:30.827Z,0.40
2018-12-09T11:22:30.033Z,2.90
2018-12-09T11:23:30.088Z,1.90
2018-12-09T11:24:30.147Z,1.60
2018-12-09T11:25:30.203Z,1.30
2018-12-09T11:26:30.261Z,1.40
2018-12-09T11:27:30.318Z,0.80
2018-12-09T11:28:30.377Z,1.20
2018-12-09T11:29:30.434Z,1.10
2018-12-09T11:30:30.492Z,0.60
2018-12-09T11:31:31.088Z,0.60
2018-12-09T11:32:30.607Z,0.70
2018-12-09T11:33:30.665Z,1.40
2018-12-09T11:34:30.721Z,0.90
2018-12-09T11:35:30.778Z,0.30
2018-12-09T11:36:30.836Z,0.70
2018-12-09T11:37:30.895Z,0.70
2018-12-09T11:38:30.956Z,0.30
2018-12-09T11:39:31.321Z,0.90
2018-12-09T11:40:31.067Z,0.60
2018-12-09T11:41:31.126Z,0.40
2018-12-09T11:42:31.191Z,1.50
2018-12-09T11:43:31.241Z,2.20
2018-12-09T11:44:31.298Z,0.40
2018-12-09T11:45:31.357Z,0.40
2018-12-09T11:46:31.413Z,1.90
2018-12-09T11:47:31.473Z,1.30
2018-12-09T11:48:31.528Z,1.50
2018-12-09T11:49:31.587Z,1.50
2018-12-09T11:50:31.643Z,0.60
2018-12-09T11:51:31.700Z,0.60
2018-12-09T11:52:31.757Z,0.20
2018-12-09T11:53:31.816Z,0.50
2018-12-09T11:54:31.875Z,0.80
2018-12-09T11:55:31.930Z,1.20
2018-12-09T11:56:31.987Z,0.70
2018-12-09T11:57:32.049Z,0.30
2018-12-09T11:58:32.103Z,0.70
2018-12-09T11:59:32.159Z,1.30
2018-12-09T12:00:32.224Z,0.70
2018-12-09T12:01:32.279Z,1.40
2018-12-09T12:02:32.332Z,2.40
2018-12-09T12:03:32.388Z,0.70
2018-12-09T12:04:32.447Z,1.20
2018-12-09T12:05:32.504Z,1.30
2018-12-09T12:06:32.563Z,0.40
2018-12-09T12:07:32.619Z,1.30
2018-12-09T12:08:32.676Z,0.30
2018-12-09T12:09:32.733Z,1.00
2018-12-09T12:10:32.791Z,1.20
2018-12-09T12:11:32.849Z,0.90
2018-12-09T12:12:32.907Z,2.10
2018-12-09T12:13:32.966Z,0.70
2018-12-09T12:14:33.021Z,0.60
2018-12-09T12:15:33.078Z,1.00
2018-12-09T12:16:33.136Z,2.00
2018-12-09T12:17:33.194Z,3.50
2018-12-09T12:18:33.254Z,1.40
2018-12-09T12:19:33.309Z,1.70
2018-12-09T12:20:33.365Z,1.60
2018-12-09T12:21:33.424Z,1.90
2018-12-09T12:22:33.483Z,1.50
2018-12-09T12:23:33.542Z,1.90
2018-12-09T12:24:33.597Z,1.70
2018-12-09T12:25:33.657Z,1.20
2018-12-09T12:26:33.713Z,1.20
2018-12-09T12:27:33.773Z,1.80
2018-12-09T12:28:33.828Z,1.10
2018-12-09T12:29:33.887Z,0.60
2018-12-09T12:30:33.944Z,1.20
2018-12-09T12:31:34.000Z,1.50
2018-12-09T12:32:34.062Z,0.80
2018-12-09T12:33:34.118Z,2.20
2018-12-09T12:34:34.175Z,2.00
2018-12-09T12:35:34.232Z,2.10
2018-12-09T12:36:34.290Z,1.40
2018-12-09T12:37:34.345Z,1.50
2018-12-09T12:38:34.403Z,1.90
2018-12-09T12:39:34.463Z,1.90
2018-12-09T12:40:34.518Z,1.00
2018-12-09T12:41:34.581Z,0.60
2018-12-09T12:42:34.633Z,0.60
2018-12-09T12:43:34.690Z,0.90
2018-12-09T12:44:34.749Z,1.40
2018-12-09T12:45:34.804Z,0.50
2018-12-09T12:46:34.863Z,3.10
2018-12-09T12:47:34.920Z,1.50
2018-12-09T12:48:34.975Z,1.60
2018-12-09T12:49:35.035Z,0.80
2018-12-09T12:50:35.090Z,0.60
2018-12-09T12:51:35.148Z,0.80
2018-12-09T12:52:35.205Z,0.80
2018-12-09T12:53:35.261Z,1.10
2018-12-09T12:54:35.320Z,1.40
2018-12-09T12:55:35.376Z,1.10
2018-12-09T12:56:35.432Z,1.40
2018-12-09T12:57:35.490Z,1.60
2018-12-09T12:58:35.548Z,1.40
2018-12-09T12:59:35.603Z,1.30
2018-12-09T13:00:35.659Z,2.70
2018-12-09T13:01:35.718Z,2.40
2018-12-09T13:02:35.779Z,1.80
2018-12-09T13:03:35.831Z,1.00
2018-12-09T13:04:35.890Z,3.50
2018-12-09T13:05:35.946Z,2.60
2018-12-09T13:06:36.003Z,3.40
2018-12-09T13:07:36.059Z,2.10
2018-12-09T13:08:36.120Z,1.00
2018-12-09T13:09:36.174Z,2.30
2018-12-09T13:10:36.647Z,1.90
2018-12-09T13:11:36.903Z,1.00
2018-12-09T13:12:36.964Z,2.70
2018-12-09T13:13:37.050Z,2.40
2018-12-09T13:14:37.122Z,2.00
2018-12-09T13:15:36.515Z,1.80
2018-12-09T13:16:36.572Z,2.20
2018-12-09T13:17:36.631Z,2.10
2018-12-09T13:18:36.688Z,3.60
2018-12-09T13:19:36.745Z,1.20